Flight Track Log - Related Links

Times and Time Zones

All times are in EDT time to prevent confusion due to time zone crossing. See the PDT4314 flight status page for this flight to view local times or setup timezone preferences in your user account.

Time Position Orientation Groundspeed Altitude Reporting Facility
EDT Latitude Longitude Course Direction KTS MPH feet Rate Location/Type
Sun 06:59:00 PM 41.9924 -75.9090 180° South  Level Estimated
Sun 07:00:00 PM 41.9370 -75.9146 184° South  Level FlightAware Approximate
Sun 07:01:00 PM 41.8830 -75.8964 154° Southeast  Level Estimated
Sun 07:02:00 PM 41.8291 -75.8783 160° South  Level Estimated
Sun 07:03:00 PM 41.7736 -75.8750 177° South  Level FlightAware Approximate
Sun 07:04:00 PM 41.7197 -75.8565 159° South  Level Estimated
Sun 07:05:00 PM 41.6652 -75.8424 169° South  Level FlightAware Approximate
Sun 07:06:00 PM 41.6114 -75.8239 153° Southeast  Level Estimated
Sun 07:07:00 PM 41.5575 -75.8053 161° South  Level Estimated
Sun 07:08:00 PM 41.5045 -75.7830 162° South  Level FlightAware Approximate
Sun 07:09:00 PM 41.4515 -75.7607 163° South  Level FlightAware Approximate
Sun 07:10:00 PM 41.3985 -75.7385 163° South  Level FlightAware Approximate
Sun 07:11:00 PM 41.3446 -75.7205 162° South  Level Estimated
Sun 07:12:00 PM 41.2919 -75.6969 161° South  Level FlightAware Approximate
Sun 07:13:00 PM 41.2392 -75.6733 161° South  Level FlightAware Approximate
Sun 07:14:00 PM 41.1865 -75.6497 161° South  Level FlightAware Approximate
Sun 07:15:00 PM 41.1338 -75.6262 161° South  Level FlightAware Approximate
Sun 07:16:00 PM 41.0797 -75.6094 163° South  Level Estimated
Sun 07:17:00 PM 41.0270 -75.5861 162° South  Level FlightAware Approximate
Sun 07:18:00 PM 40.9743 -75.5629 162° South  Level FlightAware Approximate
Sun 07:19:00 PM 40.9215 -75.5397 162° South  Level FlightAware Approximate
Sun 07:19:46 PM 40.7333 -75.5333 187° South 267 307 7,300  Level Philadelphia TRACON
Sun 07:20:00 PM 40.8688 -75.5165 162° South  Level FlightAware Approximate
Sun 07:20:04 PM 40.7000 -75.5333 180° South 271 312 7,000  Level Philadelphia TRACON
Sun 07:21:00 PM 40.8144 -75.5013 190° South  Level Estimated
Sun 07:21:04 PM 40.6333 -75.5333 180° South 272 313 6,200  Level Philadelphia TRACON
Sun 07:22:00 PM 40.7588 -75.5010 180° South  Level FlightAware Approximate
Sun 07:22:04 PM 40.5500 -75.5500 189° South 266 306 5,400  Level Philadelphia TRACON
Sun 07:23:00 PM 40.7032 -75.5008 180° South  Level FlightAware Approximate
Sun 07:23:05 PM 40.4833 -75.5500 180° South 266 306 5,000  Level Philadelphia TRACON
Sun 07:24:00 PM 40.6476 -75.5006 180° South  Level FlightAware Approximate
Sun 07:24:05 PM 40.4167 -75.5333 169° South 254 292 4,900  Level Philadelphia TRACON
Sun 07:25:00 PM 40.5938 -75.4824 187° South  Level Estimated
Sun 07:25:05 PM 40.3500 -75.4667 143° Southeast 252 290 5,000  Level Philadelphia TRACON
Sun 07:26:05 PM 40.3000 -75.4167 143° Southeast 251 289 5,000 -50 Level Philadelphia TRACON
Sun 07:27:05 PM 40.2500 -75.3500 134° Southeast 251 289 4,900 -400 Descending Philadelphia TRACON
Sun 07:28:05 PM 40.2000 -75.3000 143° Southeast 260 299 4,200 -500 Descending Philadelphia TRACON
Sun 07:29:05 PM 40.1333 -75.2333 143° Southeast 260 299 3,900 -150 Descending Philadelphia TRACON
Sun 07:30:05 PM 40.0833 -75.2000 153° Southeast 244 281 3,900  Level Philadelphia TRACON
Sun 07:31:11 PM 40.0000 -75.1833 171° South 246 283 3,900 48 Level Philadelphia TRACON
Sun 07:32:11 PM 39.9333 -75.1667 169° South 243 280 4,000 -50 Climbing Philadelphia TRACON
Sun 07:33:11 PM 39.8667 -75.1333 159° South 243 280 3,800 -900 Descending Philadelphia TRACON
Sun 07:34:11 PM 39.8000 -75.1333 180° South 238 274 2,200 -1,250 Descending Philadelphia TRACON
Sun 07:35:11 PM 39.8000 -75.2000 270° West 165 190 1,300 -744 Descending Philadelphia TRACON
Sun 07:36:12 PM 39.8333 -75.2167 339° North 114 131 700 -100 Descending Philadelphia TRACON
Sun 07:37:11 PM 39.8667 -75.2333 339° North 98 113 1,100 1,008 Climbing Philadelphia TRACON
Sun 07:38:11 PM 39.9000 -75.2333 360° North 148 170 2,700 991 Climbing Philadelphia TRACON
Sun 07:39:06 PM 39.9333 -75.2500 339° North 190 219 3,000 149 Climbing Philadelphia TRACON
Sun 07:40:12 PM 39.9833 -75.2000 37° Northeast 237 273 3,000  Level Philadelphia TRACON
Sun 07:41:12 PM 39.9833 -75.1167 90° East 236 272 3,000  Level Philadelphia TRACON
Sun 07:42:06 PM 39.9833 -75.0333 90° East 244 281 3,000 -53 Level Philadelphia TRACON
Sun 07:43:06 PM 39.9333 -75.0333 180° South 210 242 2,900 -550 Descending Philadelphia TRACON
Sun 07:44:06 PM 39.9167 -75.1000 252° West 171 197 1,900 -900 Descending Philadelphia TRACON
Sun 07:45:06 PM 39.9000 -75.1500 247° West 136 157 1,100 -700 Descending Philadelphia TRACON
Sun 07:46:06 PM 39.8833 -75.1833 237° Southwest 113 130 500 -600 Descending Philadelphia TRACON

Login

Don't have an account? Register now (free) for customized features, flight alerts, and more!